»·PEaware :: USC81 KLAS-KEGE

USC81 :: KLAS-KEGE

FLIGHT INFORMATION

Flight Status: Arrived
Operator: Unknown
More flights by this operator :: More flights under this callsign
Pilot: Andy P. (22680)
Aircraft: GATES LEARJET LEARJET 35/36
(LJ35)
More flights by this aircraft type
Origin: KLAS McCarran Intl
United States
Destination: KEGE Eagle Co Regl
United States
More flights between these airports :: More routes between these airports
Route: TRALR9 VERKN HVE JNC RIL RLG
File this flight plan on PilotEdge
Remarks:
Altitude:
(Current/Filed)
39,000ft
Speed:
(Current/Filed)
465kts
Departed: 15-Apr-20 01:32 PM
Arrived: 15-Apr-20 02:59 PM
Distance/Time
Traveled:
445nm/1:27
Distance/Time
To Go:
Arrived

Flight Plot

Page will automatically refresh every two minutes.

Flight plan parsing failed; only flown route is shown


Map Options




Map Legend


Flown Route
Filed Route
Departure Airport
Arrival Airport
Navaid (VOR, NDB)
Fix

Horizontal Profiles

Position Reports

Time Latitude Longitude Heading Altitude Ground
Speed
15-Apr-20 13:09 36.080426 -115.126953 90 2183ft 0kts
15-Apr-20 13:10 36.080426 -115.126953 90 2183ft 0kts
15-Apr-20 13:11 36.080426 -115.126953 90 2183ft 0kts
15-Apr-20 13:12 36.080426 -115.126953 90 2183ft 0kts
15-Apr-20 13:13 36.080426 -115.126953 90 2183ft 0kts
15-Apr-20 13:14 36.080426 -115.126953 90 2183ft 0kts
15-Apr-20 13:15 36.080426 -115.126953 90 2183ft 0kts
15-Apr-20 13:16 36.080426 -115.126953 90 2183ft 0kts
15-Apr-20 13:17 36.080426 -115.126953 90 2183ft 0kts
15-Apr-20 13:18 36.080426 -115.126953 90 2183ft 0kts
15-Apr-20 13:19 36.080426 -115.126953 90 2183ft 0kts
15-Apr-20 13:20 36.080426 -115.126953 90 2183ft 0kts
15-Apr-20 13:21 36.080426 -115.126953 90 2183ft 0kts
15-Apr-20 13:22 36.080426 -115.126953 90 2183ft 0kts
15-Apr-20 13:23 36.080426 -115.126953 90 2183ft 0kts
15-Apr-20 13:24 36.080426 -115.126953 90 2183ft 0kts
15-Apr-20 13:25 36.080426 -115.126953 90 2183ft 0kts
15-Apr-20 13:26 36.080426 -115.126953 90 2183ft 0kts
15-Apr-20 13:27 36.080426 -115.126950 90 2183ft 0kts
15-Apr-20 13:28 36.079667 -115.126377 172 2183ft 14kts
15-Apr-20 13:29 36.078190 -115.122581 110 2183ft 15kts
15-Apr-20 13:30 36.077286 -115.121287 166 2183ft 12kts
15-Apr-20 13:31 36.076416 -115.145889 268 2213ft 161kts
15-Apr-20 13:32 36.077567 -115.206041 269 3920ft 183kts
15-Apr-20 13:33 36.057656 -115.263724 200 6114ft 215kts
15-Apr-20 13:34 35.995620 -115.289011 203 6968ft 240kts
15-Apr-20 13:35 35.931624 -115.287740 155 7992ft 257kts
15-Apr-20 13:36 35.862751 -115.255796 136 10356ft 277kts
15-Apr-20 13:37 35.864358 -115.158293 83 12095ft 314kts
15-Apr-20 13:38 35.869685 -115.048058 62 15196ft 326kts
15-Apr-20 13:39 35.917326 -114.949940 54 18464ft 343kts
15-Apr-20 13:40 35.967773 -114.835646 60 19064ft 420kts
15-Apr-20 13:41 36.019774 -114.698666 60 19062ft 451kts
15-Apr-20 13:42 36.073887 -114.557772 60 19058ft 452kts
15-Apr-20 13:43 36.127406 -114.418176 60 19056ft 451kts
15-Apr-20 13:44 36.179357 -114.282051 60 21600ft 427kts
15-Apr-20 13:45 36.207500 -114.142039 79 24384ft 418kts
15-Apr-20 13:46 36.222952 -114.001123 78 26808ft 413kts
15-Apr-20 13:47 36.239608 -113.858491 79 28551ft 423kts
15-Apr-20 13:48 36.256473 -113.713620 79 30449ft 425kts
15-Apr-20 13:50 36.273227 -113.568273 79 32419ft 423kts
15-Apr-20 13:51 36.289693 -113.423879 79 34226ft 422kts
15-Apr-20 13:52 36.305894 -113.280225 79 35794ft 420kts
15-Apr-20 13:53 36.350981 -113.155771 26 37086ft 392kts
15-Apr-20 13:54 36.440740 -113.078975 34 38296ft 395kts
15-Apr-20 13:55 36.523373 -112.987593 36 39097ft 404kts
15-Apr-20 13:56 36.609205 -112.890927 36 39131ft 430kts
15-Apr-20 13:57 36.701520 -112.790543 33 39129ft 449kts
15-Apr-20 13:58 36.799580 -112.688953 34 39124ft 466kts
15-Apr-20 13:59 36.899709 -112.584186 34 39117ft 471kts
15-Apr-20 14:00 37.000050 -112.478764 34 39113ft 472kts
15-Apr-20 14:01 37.100508 -112.372837 34 39110ft 471kts
15-Apr-20 14:02 37.200680 -112.266835 34 39102ft 471kts
15-Apr-20 14:03 37.300542 -112.160781 34 39097ft 470kts
15-Apr-20 14:04 37.398701 -112.052057 42 39098ft 477kts
15-Apr-20 14:05 37.490354 -111.932183 39 39100ft 475kts
15-Apr-20 14:06 37.582500 -111.812373 39 39100ft 475kts
15-Apr-20 14:07 37.674152 -111.692152 39 39099ft 475kts
15-Apr-20 14:08 37.765573 -111.571666 39 39071ft 476kts
15-Apr-20 14:08 37.841779 -111.470858 39 39071ft 475kts
15-Apr-20 14:09 37.932889 -111.349910 39 39060ft 476kts
15-Apr-20 14:11 38.039517 -111.207764 39 39041ft 476kts
15-Apr-20 14:11 38.115454 -111.106140 39 39040ft 476kts
15-Apr-20 14:12 38.206641 -110.983669 39 39034ft 476kts
15-Apr-20 14:14 38.312816 -110.840467 39 39021ft 477kts
15-Apr-20 14:15 38.403882 -110.717115 39 39003ft 477kts
15-Apr-20 14:15 38.459485 -110.592108 62 38998ft 499kts
15-Apr-20 14:16 38.511983 -110.428046 60 38971ft 498kts
15-Apr-20 14:17 38.567028 -110.265577 60 38963ft 498kts
15-Apr-20 14:18 38.622282 -110.103629 60 38958ft 498kts
15-Apr-20 14:19 38.677543 -109.941131 60 38950ft 499kts
15-Apr-20 14:20 38.732906 -109.777484 60 38945ft 500kts
15-Apr-20 14:21 38.787913 -109.613967 60 38945ft 501kts
15-Apr-20 14:22 38.842842 -109.449745 60 38945ft 501kts
15-Apr-20 14:23 38.897609 -109.285064 60 38945ft 502kts
15-Apr-20 14:24 38.952250 -109.119802 60 38945ft 503kts
15-Apr-20 14:25 39.006713 -108.954115 60 38945ft 504kts
15-Apr-20 14:26 39.061744 -108.787789 56 38944ft 500kts
15-Apr-20 14:27 39.130395 -108.633315 53 38944ft 499kts
15-Apr-20 14:28 39.198543 -108.478137 52 37602ft 488kts
15-Apr-20 14:29 39.264110 -108.328590 50 35840ft 469kts
15-Apr-20 14:30 39.327413 -108.183720 49 34248ft 457kts
15-Apr-20 14:31 39.389619 -108.040777 49 32576ft 457kts
15-Apr-20 14:32 39.451872 -107.896990 50 30904ft 456kts
15-Apr-20 14:33 39.513534 -107.753915 50 29252ft 456kts
15-Apr-20 14:34 39.571959 -107.606912 55 27577ft 460kts
15-Apr-20 14:35 39.627487 -107.457354 56 25820ft 459kts
15-Apr-20 14:36 39.678796 -107.320230 56 24185ft 444kts
15-Apr-20 14:37 39.731229 -107.179834 57 22604ft 424kts
15-Apr-20 14:38 39.782353 -107.043496 53 21009ft 411kts
15-Apr-20 14:39 39.853529 -106.932542 39 19332ft 386kts
15-Apr-20 14:40 39.926166 -106.835976 38 17625ft 364kts
15-Apr-20 14:41 39.995943 -106.745901 38 15915ft 332kts
15-Apr-20 14:42 40.064918 -106.660476 38 15005ft 351kts
15-Apr-20 14:43 40.134577 -106.570983 55 14970ft 357kts
15-Apr-20 14:44 40.121090 -106.470574 135 14987ft 259kts
15-Apr-20 14:45 40.071558 -106.430335 204 15017ft 196kts
15-Apr-20 14:46 40.005187 -106.443690 195 14999ft 260kts
15-Apr-20 14:47 39.934390 -106.471618 203 14219ft 275kts
15-Apr-20 14:48 39.868823 -106.498840 205 14018ft 225kts
15-Apr-20 14:49 39.811878 -106.522944 205 13972ft 213kts
15-Apr-20 14:50 39.753815 -106.547274 204 13496ft 221kts
15-Apr-20 14:51 39.700112 -106.575070 229 12905ft 185kts
15-Apr-20 14:52 39.684449 -106.631716 259 11842ft 197kts
15-Apr-20 14:53 39.673368 -106.705496 259 10432ft 211kts
15-Apr-20 14:54 39.662967 -106.769879 260 9055ft 163kts
15-Apr-20 14:55 39.656462 -106.822264 259 7987ft 136kts
15-Apr-20 14:56 39.649338 -106.870021 253 7072ft 134kts
15-Apr-20 14:57 39.643203 -106.911521 262 6518ft 62kts
15-Apr-20 14:58 39.641742 -106.915480 98 6518ft 0kts
15-Apr-20 14:59 39.641868 -106.909225 176 6518ft 10kts
15-Apr-20 15:00 39.641330 -106.909605 259 6518ft 0kts

Navigation Log

Ident Type
Flight plan parsing failed, navigation log unavailable